Station Historical Data
Daily Summary for September 29, 2017 Units:  Metric    English   Both
« Previous Day
Next Day »
Daily Weekly Monthly Yearly Custom
  High: Low: Average:
Temperature: 17.4 °C 6.7 °C 11.4 °C
Dew Point: 13 °C 4.9 °C 7.9 °C
Humidity: 89% 60% 80%
Wind Speed: 25.7km/h 0km/h 5.5km/h
Wind Gust: 43.5km/h - -
Wind- - SW
Pressure: 1018.5 hPa 1012.4 hPa -
Precipitation: 0 mm    
Historical Graphs
 
 
Tabular Data for September 29, 2017
Time Temperature Dew Point Pressure Wind Wind Speed Wind Gust Humidity Rainfall Rate (Hourly)
00:04 10.7 °C 6.7 °C 1018.2 hPa Calm     76% 0 mm
00:09 10.6 °C 6.5 °C 1018.5 hPa Calm     76% 0 mm
00:14 10.4 °C 6.6 °C 1018.2 hPa Calm     77% 0 mm
00:19 10.4 °C 6.7 °C 1018.5 hPa Calm     78% 0 mm
00:24 10.3 °C 6.6 °C 1018.5 hPa Calm     78% 0 mm
00:29 10 °C 6.5 °C 1018.5 hPa Calm     79% 0 mm
00:34 9.9 °C 6.6 °C 1018.2 hPa Calm     80% 0 mm
00:39 9.8 °C 6.6 °C 1018.2 hPa Calm     80% 0 mm
00:44 9.7 °C 6.4 °C 1018.2 hPa Calm     80% 0 mm
00:49 9.6 °C 6.3 °C 1018.2 hPa Calm     80% 0 mm
00:54 9.4 °C 6.1 °C 1018.2 hPa Calm     80% 0 mm
00:59 9.3 °C 6.2 °C 1018.5 hPa Calm     81% 0 mm
01:04 9.2 °C 6.3 °C 1018.2 hPa Calm     82% 0 mm
01:09 9.1 °C 6.2 °C 1018.2 hPa Calm     82% 0 mm
01:14 9.1 °C 6.2 °C 1018.2 hPa Calm     82% 0 mm
01:19 8.9 °C 6.1 °C 1018.2 hPa Calm     82% 0 mm
01:24 8.8 °C 6.1 °C 1018.5 hPa Calm     83% 0 mm
01:29 8.8 °C 6.1 °C 1018.2 hPa Calm     83% 0 mm
01:34 8.8 °C 6.1 °C 1018.2 hPa Calm     83% 0 mm
01:39 8.8 °C 6.2 °C 1018.2 hPa Calm     84% 0 mm
01:44 8.7 °C 6.1 °C 1018.2 hPa Calm     84% 0 mm
01:49 8.7 °C 6.1 °C 1018.2 hPa Calm     84% 0 mm
01:54 8.6 °C 6 °C 1018.5 hPa Calm     84% 0 mm
01:59 8.5 °C 6.1 °C 1018.5 hPa Calm     85% 0 mm
02:04 8.4 °C 6.1 °C 1018.5 hPa Calm     85% 0 mm
02:09 8.3 °C 5.9 °C 1018.5 hPa Calm     85% 0 mm
02:14 8.3 °C 5.9 °C 1018.5 hPa Calm     85% 0 mm
02:19 8.3 °C 6.1 °C 1018.2 hPa Calm     86% 0 mm
02:24 8.2 °C 5.9 °C 1018.5 hPa Calm     86% 0 mm
02:29 8.1 °C 5.9 °C 1018.5 hPa Calm     86% 0 mm
02:34 8.1 °C 5.9 °C 1018.5 hPa Calm     86% 0 mm
02:39 8.1 °C 5.8 °C 1018.5 hPa Calm     86% 0 mm
02:44 7.9 °C 5.7 °C 1018.5 hPa Calm     86% 0 mm
02:49 7.9 °C 5.7 °C 1018.5 hPa Calm     86% 0 mm
02:54 7.8 °C 5.8 °C 1018.5 hPa Calm     87% 0 mm
02:59 7.9 °C 6.1 °C 1018.2 hPa Calm   3.2 km/h 88% 0 mm
03:04 8.1 °C 6 °C 1018.2 hPa Calm     87% 0 mm
03:09 8 °C 5.8 °C 1018.2 hPa Calm     86% 0 mm
03:14 7.8 °C 5.6 °C 1018.2 hPa Calm     86% 0 mm
03:19 7.8 °C 5.8 °C 1018.2 hPa Calm     87% 0 mm
03:24 7.8 °C 5.8 °C 1018.2 hPa Calm     87% 0 mm
03:29 7.8 °C 5.6 °C 1018.2 hPa Calm     86% 0 mm
03:34 7.8 °C 5.6 °C 1018.2 hPa Calm     86% 0 mm
03:39 7.8 °C 5.7 °C 1018.2 hPa Calm     87% 0 mm
03:44 7.7 °C 5.7 °C 1018.2 hPa Calm     87% 0 mm
03:49 7.8 °C 5.7 °C 1018.2 hPa Calm     87% 0 mm
03:54 7.7 °C 5.5 °C 1018.2 hPa Calm     86% 0 mm
03:59 7.7 °C 5.5 °C 1018.2 hPa Calm     86% 0 mm
04:04 7.5 °C 5.3 °C 1018.2 hPa Calm     86% 0 mm
04:09 7.5 °C 5.5 °C 1017.8 hPa Calm     87% 0 mm
04:14 7.4 °C 5.4 °C 1018.2 hPa Calm     87% 0 mm
04:19 7.3 °C 5.3 °C 1017.8 hPa Calm     87% 0 mm
04:24 7.3 °C 5.3 °C 1017.8 hPa Calm     87% 0 mm
04:29 7.3 °C 5.3 °C 1018.2 hPa Calm     87% 0 mm
04:34 7.3 °C 5.3 °C 1018.2 hPa Calm     87% 0 mm
04:39 7.2 °C 5.2 °C 1018.2 hPa Calm     87% 0 mm
04:44 7.3 °C 5.3 °C 1018.2 hPa Calm     87% 0 mm
04:49 7.2 °C 5.2 °C 1018.2 hPa Calm     87% 0 mm
04:54 7.3 °C 5.3 °C 1018.2 hPa Calm     87% 0 mm
04:59 7.3 °C 5.3 °C 1018.2 hPa Calm     87% 0 mm
05:04 7.2 °C 5.2 °C 1018.2 hPa Calm     87% 0 mm
05:09 7.2 °C 5.2 °C 1018.2 hPa Calm     87% 0 mm
05:14 7.1 °C 5.1 °C 1018.2 hPa Calm     87% 0 mm
05:19 7 °C 5 °C 1017.8 hPa Calm     87% 0 mm
05:24 7 °C 5.2 °C 1017.8 hPa Calm     88% 0 mm
05:29 7.1 °C 5.3 °C 1017.8 hPa Calm     88% 0 mm
05:34 7.1 °C 5.1 °C 1017.8 hPa Calm     87% 0 mm
05:39 7 °C 5.2 °C 1017.8 hPa Calm     88% 0 mm
05:44 6.9 °C 5.1 °C 1018.2 hPa Calm     88% 0 mm
05:49 6.8 °C 4.9 °C 1018.2 hPa Calm     88% 0 mm
05:54 6.8 °C 4.9 °C 1018.2 hPa Calm     88% 0 mm
05:59 6.9 °C 5.2 °C 1018.2 hPa Calm     89% 0 mm
06:04 6.9 °C 5.1 °C 1018.2 hPa Calm     88% 0 mm
06:09 6.9 °C 5.1 °C 1018.2 hPa Calm     88% 0 mm
06:14 6.8 °C 4.9 °C 1017.8 hPa Calm     88% 0 mm
06:19 6.7 °C 5 °C 1017.8 hPa Calm     89% 0 mm
06:24 6.9 °C 5.2 °C 1018.2 hPa Calm     89% 0 mm
06:29 7 °C 5.3 °C 1018.2 hPa Calm   1.6 km/h 89% 0 mm
06:34 7.1 °C 5.4 °C 1018.2 hPa Calm     89% 0 mm
06:39 7.1 °C 5.4 °C 1018.2 hPa Calm     89% 0 mm
06:44 7.1 °C 5.4 °C 1018.2 hPa Calm     89% 0 mm
06:49 7.2 °C 5.5 °C 1018.2 hPa Calm     89% 0 mm
06:54 7.2 °C 5.5 °C 1018.2 hPa Calm     89% 0 mm
06:59 7.1 °C 5.4 °C 1018.2 hPa Calm     89% 0 mm
07:04 7.1 °C 5.2 °C 1018.2 hPa Calm     88% 0 mm
07:09 7 °C 5.3 °C 1018.2 hPa Calm     89% 0 mm
07:14 7.1 °C 5.4 °C 1018.2 hPa Calm     89% 0 mm
07:19 7.1 °C 5.4 °C 1018.2 hPa Calm     89% 0 mm
07:24 7.1 °C 5.4 °C 1018.2 hPa Calm     89% 0 mm
07:29 7.1 °C 5.4 °C 1018.5 hPa Calm     89% 0 mm
07:34 7.2 °C 5.5 °C 1018.5 hPa Calm     89% 0 mm
07:39 7.3 °C 5.6 °C 1018.5 hPa Calm     89% 0 mm
07:44 7.4 °C 5.6 °C 1018.5 hPa Calm     88% 0 mm
07:49 7.4 °C 5.6 °C 1018.5 hPa Calm     88% 0 mm
07:54 7.6 °C 5.7 °C 1018.5 hPa Calm     88% 0 mm
07:59 7.7 °C 5.8 °C 1018.5 hPa Calm     88% 0 mm
08:04 7.8 °C 5.7 °C 1018.2 hPa Calm     87% 0 mm
08:09 7.9 °C 5.9 °C 1018.2 hPa Calm     87% 0 mm
08:14 8.2 °C 6.1 °C 1018.5 hPa Calm   1.6 km/h 87% 0 mm
08:19 8.3 °C 6.1 °C 1018.5 hPa Calm   3.2 km/h 86% 0 mm
08:24 8.6 °C 6.2 °C 1018.5 hPa NNW 1.6 km/h 6.4 km/h 85% 0 mm
08:29 8.9 °C 6.4 °C 1018.2 hPa NNW 1.6 km/h 6.4 km/h 84% 0 mm
08:34 9.3 °C 6.6 °C 1018.5 hPa NE 1.6 km/h 6.4 km/h 83% 0 mm
08:39 9.8 °C 6.7 °C 1018.5 hPa Calm   4.8 km/h 81% 0 mm
08:44 10.2 °C 6.7 °C 1018.2 hPa Calm   4.8 km/h 79% 0 mm
08:49 10.5 °C 6.8 °C 1018.2 hPa SE 1.6 km/h 6.4 km/h 78% 0 mm
08:54 10.7 °C 6.8 °C 1018.2 hPa SE 6.4 km/h 6.4 km/h 77% 0 mm
08:59 10.9 °C 6.9 °C 1018.2 hPa SSE 4.8 km/h 8 km/h 76% 0 mm
09:04 11.3 °C 7.2 °C 1018.2 hPa SSE 3.2 km/h 6.4 km/h 76% 0 mm
09:09 11.6 °C 7.3 °C 1018.2 hPa Calm   8 km/h 75% 0 mm
09:14 11.9 °C 7.4 °C 1018.2 hPa SSE 4.8 km/h 11.3 km/h 74% 0 mm
09:19 12.3 °C 7.6 °C 1018.2 hPa SSE 4.8 km/h 11.3 km/h 73% 0 mm
09:24 12.6 °C 7.4 °C 1018.2 hPa SSE 4.8 km/h 11.3 km/h 71% 0 mm
09:29 13 °C 8.1 °C 1017.8 hPa SE 4.8 km/h 12.9 km/h 72% 0 mm
09:34 13.3 °C 7.8 °C 1017.8 hPa SE 4.8 km/h 12.9 km/h 69% 0 mm
09:39 13.8 °C 8 °C 1017.5 hPa ESE 6.4 km/h 12.9 km/h 68% 0 mm
09:44 14.1 °C 8 °C 1017.8 hPa SSE 6.4 km/h 12.9 km/h 67% 0 mm
09:49 14.1 °C 7.8 °C 1017.5 hPa SE 3.2 km/h 11.3 km/h 66% 0 mm
09:54 13.8 °C 7.6 °C 1017.5 hPa SE 3.2 km/h 12.9 km/h 66% 0 mm
09:59 13.7 °C 7.9 °C 1017.5 hPa SE 6.4 km/h 11.3 km/h 68% 0 mm
10:04 13.7 °C 7.7 °C 1017.5 hPa SSE 4.8 km/h 14.5 km/h 67% 0 mm
10:09 13.9 °C 7.8 °C 1017.5 hPa SSE 4.8 km/h 12.9 km/h 67% 0 mm
10:14 14.3 °C 8 °C 1017.5 hPa SSE 4.8 km/h 12.9 km/h 66% 0 mm
10:19 14.4 °C 8.2 °C 1017.5 hPa SSE 6.4 km/h 14.5 km/h 66% 0 mm
10:24 14.7 °C 8.2 °C 1017.2 hPa SE 3.2 km/h 12.9 km/h 65% 0 mm
10:29 14.6 °C 8.1 °C 1017.2 hPa SSW 6.4 km/h 14.5 km/h 65% 0 mm
10:34 14.4 °C 8.1 °C 1017.5 hPa South 3.2 km/h 9.7 km/h 66% 0 mm
10:39 14.3 °C 8.3 °C 1017.2 hPa South 6.4 km/h 12.9 km/h 67% 0 mm
10:44 14.3 °C 8.7 °C 1017.2 hPa South 4.8 km/h 12.9 km/h 69% 0 mm
10:49 14.3 °C 8.9 °C 1017.2 hPa South 4.8 km/h 11.3 km/h 70% 0 mm
10:54 14.2 °C 9.1 °C 1017.2 hPa South 4.8 km/h 11.3 km/h 71% 0 mm
10:59 14.2 °C 9.4 °C 1017.2 hPa South 4.8 km/h 12.9 km/h 73% 0 mm
11:04 14.1 °C 9.1 °C 1017.2 hPa Calm   9.7 km/h 72% 0 mm
11:09 14 °C 9.4 °C 1017.2 hPa South 1.6 km/h 6.4 km/h 74% 0 mm
11:14 13.9 °C 9.3 °C 1017.2 hPa Calm   14.5 km/h 74% 0 mm
11:19 13.8 °C 9.4 °C 1016.8 hPa SSW 9.7 km/h 14.5 km/h 75% 0 mm
11:24 13.4 °C 9.5 °C 1016.8 hPa SSW 1.6 km/h 9.7 km/h 77% 0.25 mm
11:29 13.3 °C 9.7 °C 1016.8 hPa SW 3.2 km/h 11.3 km/h 79% 0.25 mm
11:34 13.2 °C 9.8 °C 1016.8 hPa SSW 9.7 km/h 16.1 km/h 80% 0.51 mm
11:39 13.1 °C 9.9 °C 1016.8 hPa South 8 km/h 12.9 km/h 81% 0.51 mm
11:44 13.1 °C 10.1 °C 1016.5 hPa SSE 1.6 km/h 14.5 km/h 82% 0.51 mm
11:49 13 °C 10 °C 1016.5 hPa South 4.8 km/h 14.5 km/h 82% 0.51 mm
11:54 12.9 °C 10.1 °C 1016.5 hPa South 4.8 km/h 12.9 km/h 83% 0.51 mm
11:59 12.9 °C 10.1 °C 1016.5 hPa South 6.4 km/h 16.1 km/h 83% 0.76 mm
12:04 12.8 °C 10.2 °C 1016.5 hPa South 6.4 km/h 16.1 km/h 84% 0.76 mm
12:09 12.7 °C 10.3 °C 1016.5 hPa South 6.4 km/h 20.9 km/h 85% 1.02 mm
12:14 12.7 °C 10.2 °C 1016.1 hPa SSW 8 km/h 20.9 km/h 85% 1.27 mm
12:19 12.6 °C 10.3 °C 1016.1 hPa WSW 11.3 km/h 14.5 km/h 86% 1.52 mm
12:24 12.6 °C 10.3 °C 1016.1 hPa South 4.8 km/h 17.7 km/h 86% 1.27 mm
12:29 12.6 °C 10.4 °C 1015.8 hPa South 6.4 km/h 12.9 km/h 87% 1.52 mm
12:34 12.6 °C 10.4 °C 1015.8 hPa SSW 9.7 km/h 16.1 km/h 87% 1.27 mm
12:39 12.7 °C 10.6 °C 1015.8 hPa South 6.4 km/h 16.1 km/h 87% 1.27 mm
12:44 12.8 °C 10.7 °C 1015.5 hPa South 8 km/h 16.1 km/h 87% 1.27 mm
12:49 13.3 °C 11.2 °C 1015.8 hPa SSW 8 km/h 19.3 km/h 87% 1.27 mm
12:54 13.4 °C 10.9 °C 1015.5 hPa SSW 8 km/h 19.3 km/h 85% 1.27 mm
12:59 13.4 °C 10.9 °C 1015.5 hPa SSW 8 km/h 19.3 km/h 85% 1.02 mm
13:04 13.6 °C 10.9 °C 1015.5 hPa SSW 6.4 km/h 22.5 km/h 84% 1.02 mm
13:09 13.4 °C 10.8 °C 1015.5 hPa South 8 km/h 19.3 km/h 84% 0.76 mm
13:14 13.4 °C 10.6 °C 1015.5 hPa SW 9.7 km/h 16.1 km/h 83% 0.51 mm
13:19 13.6 °C 10.8 °C 1015.1 hPa SW 12.9 km/h 17.7 km/h 83% 0.25 mm
13:24 13.6 °C 10.6 °C 1015.1 hPa West 6.4 km/h 19.3 km/h 82% 0.51 mm
13:29 13.3 °C 10.5 °C 1015.1 hPa SSW 1.6 km/h 17.7 km/h 83% 0.76 mm
13:34 12.9 °C 10.3 °C 1014.8 hPa SSW 8 km/h 17.7 km/h 84% 1.27 mm
13:39 12.9 °C 10.4 °C 1014.8 hPa SSW 11.3 km/h 14.5 km/h 85% 1.52 mm
13:44 12.8 °C 10.5 °C 1014.8 hPa SSW 6.4 km/h 16.1 km/h 86% 1.78 mm
13:49 12.7 °C 10.4 °C 1014.4 hPa SSW 6.4 km/h 16.1 km/h 86% 2.03 mm
13:54 12.9 °C 10.8 °C 1014.4 hPa SSW 4.8 km/h 12.9 km/h 87% 2.03 mm
13:59 13.2 °C 10.9 °C 1014.4 hPa SSW 6.4 km/h 16.1 km/h 86% 2.03 mm
14:04 13.4 °C 11.1 °C 1014.4 hPa South 3.2 km/h 14.5 km/h 86% 2.03 mm
14:09 13.3 °C 10.9 °C 1014.4 hPa SSW 6.4 km/h 14.5 km/h 85% 2.03 mm
14:14 13.3 °C 10.9 °C 1014.4 hPa SSW 6.4 km/h 12.9 km/h 85% 2.29 mm
14:19 13.5 °C 11 °C 1014.1 hPa SW 6.4 km/h 19.3 km/h 85% 2.29 mm
14:24 13.5 °C 11 °C 1014.1 hPa WSW 3.2 km/h 14.5 km/h 85% 2.03 mm
14:29 14.1 °C 11.7 °C 1014.1 hPa Calm   16.1 km/h 86% 1.78 mm
14:34 15.1 °C 12.6 °C 1013.8 hPa SW 8 km/h 9.7 km/h 85% 1.27 mm
14:44 14.2 °C 11.3 °C 1013.4 hPa SSW 4.8 km/h 11.3 km/h 83% 0.76 mm
14:49 14.1 °C 11.4 °C 1013.4 hPa South 4.8 km/h 11.3 km/h 84% 0.76 mm
14:54 14.1 °C 11.4 °C 1013.4 hPa South 4.8 km/h 16.1 km/h 84% 0.76 mm
14:59 14.3 °C 11.8 °C 1013.4 hPa South 6.4 km/h 9.7 km/h 85% 1.02 mm
15:04 14.6 °C 11.9 °C 1013.1 hPa SSW 9.7 km/h 20.9 km/h 84% 1.02 mm
15:09 14.6 °C 11.6 °C 1013.1 hPa SSW 6.4 km/h 16.1 km/h 82% 1.02 mm
15:14 14.7 °C 11.6 °C 1013.1 hPa SSW 8 km/h 22.5 km/h 82% 0.76 mm
15:19 14.7 °C 11.6 °C 1013.4 hPa SSW 8 km/h 22.5 km/h 82% 0.76 mm
15:24 14.7 °C 11.6 °C 1013.1 hPa SW 8 km/h 22.5 km/h 82% 1.52 mm
15:29 15.6 °C 12.7 °C 1012.8 hPa SSW 9.7 km/h 22.5 km/h 83% 1.27 mm
15:34 15.7 °C 12.4 °C 1012.4 hPa South 3.2 km/h 22.5 km/h 81% 1.27 mm
15:39 15.4 °C 12.2 °C 1012.4 hPa SW 8 km/h 20.9 km/h 81% 1.27 mm
15:44 14.9 °C 11.5 °C 1012.8 hPa SW 19.3 km/h 27.4 km/h 80% 4.57 mm
15:49 14.2 °C 11.1 °C 1012.8 hPa Calm   25.7 km/h 82% 8.89 mm
15:54 14.2 °C 11.5 °C 1013.1 hPa West 6.4 km/h 12.9 km/h 84% 8.89 mm
15:59 14.3 °C 11.7 °C 1013.1 hPa Calm   9.7 km/h 84% 8.64 mm
16:04 14.6 °C 12.1 °C 1013.1 hPa WSW 8 km/h 16.1 km/h 85% 8.64 mm
16:09 15.1 °C 12.6 °C 1013.1 hPa WNW 3.2 km/h 12.9 km/h 85% 8.64 mm
16:14 15.3 °C 12.6 °C 1013.1 hPa WSW 4.8 km/h 12.9 km/h 84% 8.64 mm
16:19 15.4 °C 12.7 °C 1013.1 hPa SW 3.2 km/h 9.7 km/h 84% 8.64 mm
16:24 15.5 °C 12.8 °C 1013.1 hPa SW 3.2 km/h 9.7 km/h 84% 7.87 mm
16:29 15.7 °C 13 °C 1013.1 hPa Calm   6.4 km/h 84% 7.87 mm
16:34 16.3 °C 12.4 °C 1013.1 hPa SW 9.7 km/h 16.1 km/h 78% 7.87 mm
16:39 17 °C 12.6 °C 1013.1 hPa WNW 4.8 km/h 9.7 km/h 75% 7.87 mm
16:44 17.3 °C 11.8 °C 1013.1 hPa West 4.8 km/h 11.3 km/h 70% 4.57 mm
16:49 17.4 °C 11 °C 1013.1 hPa West 6.4 km/h 17.7 km/h 66% 0 mm
16:54 17.4 °C 10.1 °C 1013.1 hPa West 6.4 km/h 24.1 km/h 62% 0 mm
16:59 17.4 °C 9.6 °C 1013.1 hPa WNW 6.4 km/h 20.9 km/h 60% 0 mm
17:04 17.2 °C 9.6 °C 1013.1 hPa WSW 12.9 km/h 25.7 km/h 61% 0 mm
17:09 16.9 °C 9.6 °C 1013.1 hPa West 16.1 km/h 32.2 km/h 62% 0 mm
17:14 16.9 °C 9.8 °C 1013.4 hPa West 16.1 km/h 32.2 km/h 63% 0 mm
17:19 16.8 °C 9.7 °C 1013.4 hPa West 17.7 km/h 37 km/h 63% 0 mm
17:24 17.1 °C 10.2 °C 1013.4 hPa SW 8 km/h 19.3 km/h 64% 0 mm
17:34 16.7 °C 9.3 °C 1013.4 hPa West 9.7 km/h 29 km/h 62% 0 mm
17:39 16.5 °C 9.4 °C 1013.4 hPa West 12.9 km/h 29 km/h 63% 0 mm
17:44 16.4 °C 9.4 °C 1013.4 hPa West 11.3 km/h 29 km/h 63% 0 mm
17:49 16.4 °C 9.4 °C 1013.4 hPa West 11.3 km/h 29 km/h 63% 0 mm
17:54 16.4 °C 9.6 °C 1013.8 hPa West 16.1 km/h 22.5 km/h 64% 0 mm
17:59 16.4 °C 9.8 °C 1013.8 hPa West 14.5 km/h 20.9 km/h 65% 0 mm
18:04 16.3 °C 9.7 °C 1013.8 hPa West 8 km/h 22.5 km/h 65% 0 mm
18:09 16.1 °C 9.1 °C 1013.8 hPa WNW 19.3 km/h 22.5 km/h 63% 0 mm
18:14 15.9 °C 8.6 °C 1013.8 hPa West 11.3 km/h 22.5 km/h 62% 0 mm
18:19 15.7 °C 8.9 °C 1014.1 hPa West 12.9 km/h 25.7 km/h 64% 0 mm
18:24 15.4 °C 8.9 °C 1014.1 hPa West 11.3 km/h 25.7 km/h 65% 0 mm
18:29 15.2 °C 8.8 °C 1014.1 hPa WNW 9.7 km/h 19.3 km/h 66% 0 mm
18:34 14.9 °C 9.1 °C 1014.1 hPa West 8 km/h 20.9 km/h 68% 0 mm
18:39 14.8 °C 9.2 °C 1014.1 hPa NNW 16.1 km/h 30.6 km/h 69% 0 mm
18:44 14.7 °C 9.1 °C 1014.4 hPa West 12.9 km/h 30.6 km/h 69% 0 mm
18:49 14.5 °C 8.7 °C 1014.4 hPa West 12.9 km/h 20.9 km/h 68% 0 mm
18:54 14.4 °C 8.6 °C 1014.4 hPa West 12.9 km/h 27.4 km/h 68% 0 mm
18:59 14.2 °C 8.3 °C 1014.4 hPa West 9.7 km/h 19.3 km/h 68% 0 mm
19:04 14.1 °C 8.2 °C 1014.4 hPa West 9.7 km/h 16.1 km/h 68% 0 mm
19:09 13.9 °C 8.1 °C 1014.4 hPa West 16.1 km/h 19.3 km/h 68% 0 mm
19:14 13.9 °C 7.9 °C 1014.8 hPa West 19.3 km/h 27.4 km/h 67% 0 mm
19:19 13.9 °C 7.6 °C 1014.8 hPa West 14.5 km/h 27.4 km/h 66% 0 mm
19:24 13.7 °C 7.4 °C 1014.8 hPa WSW 16.1 km/h 33.8 km/h 66% 0 mm
19:29 13.6 °C 7.1 °C 1014.8 hPa WSW 12.9 km/h 25.7 km/h 65% 0 mm
19:34 13.4 °C 7 °C 1014.8 hPa West 17.7 km/h 32.2 km/h 65% 0 mm
19:39 13.3 °C 6.7 °C 1015.1 hPa WSW 20.9 km/h 29 km/h 64% 0 mm
19:44 13.3 °C 6.6 °C 1015.1 hPa WSW 22.5 km/h 37 km/h 64% 0 mm
19:49 13.2 °C 6.5 °C 1014.8 hPa West 14.5 km/h 37 km/h 64% 0 mm
19:54 13.1 °C 6.7 °C 1015.1 hPa West 12.9 km/h 29 km/h 65% 0 mm
19:59 13.1 °C 6.6 °C 1015.1 hPa West 11.3 km/h 29 km/h 65% 0 mm
20:04 13 °C 6.6 °C 1015.1 hPa WNW 11.3 km/h 24.1 km/h 65% 0 mm
20:09 12.9 °C 6.4 °C 1015.1 hPa West 19.3 km/h 25.7 km/h 65% 0 mm
20:14 12.8 °C 6.6 °C 1015.5 hPa WSW 6.4 km/h 20.9 km/h 66% 0 mm
20:19 12.8 °C 6.6 °C 1015.1 hPa West 11.3 km/h 25.7 km/h 66% 0 mm
20:24 12.7 °C 6.5 °C 1015.5 hPa West 12.9 km/h 25.7 km/h 66% 0 mm
20:29 12.7 °C 6.5 °C 1015.1 hPa West 11.3 km/h 24.1 km/h 66% 0 mm
20:34 12.6 °C 6.4 °C 1015.1 hPa West 16.1 km/h 22.5 km/h 66% 0 mm
20:39 12.4 °C 6.1 °C 1015.5 hPa West 20.9 km/h 30.6 km/h 65% 0 mm
20:44 12.3 °C 6.2 °C 1015.5 hPa West 20.9 km/h 29 km/h 66% 0 mm
20:49 12.1 °C 6.2 °C 1015.5 hPa West 11.3 km/h 29 km/h 67% 0 mm
20:54 12 °C 6.3 °C 1015.5 hPa West 11.3 km/h 27.4 km/h 68% 0 mm
20:59 11.9 °C 6.2 °C 1015.5 hPa West 11.3 km/h 24.1 km/h 68% 0 mm
21:04 11.8 °C 6.1 °C 1015.5 hPa West 12.9 km/h 27.4 km/h 68% 0 mm
21:09 11.7 °C 6.2 °C 1015.5 hPa West 11.3 km/h 27.4 km/h 69% 0 mm
21:14 11.6 °C 6.3 °C 1015.5 hPa WSW 11.3 km/h 22.5 km/h 70% 0 mm
21:19 11.5 °C 6.2 °C 1015.5 hPa West 14.5 km/h 43.5 km/h 70% 0 mm
21:24 11.4 °C 6.4 °C 1015.5 hPa West 4.8 km/h 29 km/h 71% 0 mm
21:29 11.3 °C 6.3 °C 1015.5 hPa West 25.7 km/h 27.4 km/h 71% 0 mm
21:34 11.3 °C 6.2 °C 1015.5 hPa West 11.3 km/h 25.7 km/h 71% 0 mm
21:39 11.3 °C 6.4 °C 1015.5 hPa WNW 8 km/h 27.4 km/h 72% 0 mm
21:44 11.2 °C 6.5 °C 1015.5 hPa West 8 km/h 25.7 km/h 73% 0 mm
21:49 10.9 °C 6.6 °C 1015.8 hPa West 11.3 km/h 30.6 km/h 75% 0 mm
21:54 10.6 °C 6.7 °C 1015.8 hPa West 11.3 km/h 33.8 km/h 77% 0 mm
21:59 10.3 °C 7 °C 1015.8 hPa West 9.7 km/h 27.4 km/h 80% 0 mm
22:04 10.1 °C 7.1 °C 1015.8 hPa West 9.7 km/h 27.4 km/h 82% 0.25 mm
22:09 9.9 °C 7.1 °C 1015.8 hPa WNW 9.7 km/h 17.7 km/h 83% 0.25 mm
22:14 9.8 °C 7.4 °C 1015.8 hPa WSW 9.7 km/h 17.7 km/h 85% 0.51 mm
22:19 9.8 °C 7.4 °C 1015.8 hPa WSW 9.7 km/h 17.7 km/h 85% 1.02 mm
22:24 9.8 °C 7.6 °C 1015.8 hPa West 8 km/h 17.7 km/h 86% 1.27 mm
22:29 9.9 °C 7.9 °C 1015.8 hPa West 9.7 km/h 20.9 km/h 87% 1.78 mm
22:34 10.1 °C 8.2 °C 1016.1 hPa West 8 km/h 20.9 km/h 88% 1.78 mm
22:39 10.2 °C 8.3 °C 1016.1 hPa West 4.8 km/h 11.3 km/h 88% 1.78 mm
22:44 10.4 °C 8.7 °C 1016.1 hPa West 8 km/h 25.7 km/h 89% 1.78 mm
22:49 10.8 °C 9.1 °C 1016.1 hPa NNW 4.8 km/h 20.9 km/h 89% 1.78 mm
22:54 10.9 °C 9.2 °C 1016.1 hPa WNW 3.2 km/h 19.3 km/h 89% 1.78 mm
22:59 11.1 °C 9.3 °C 1016.5 hPa NNE 17.7 km/h 17.7 km/h 89% 1.78 mm
23:04 11.1 °C 9.4 °C 1016.5 hPa WNW 4.8 km/h 20.9 km/h 89% 1.52 mm
23:09 11.2 °C 9.4 °C 1016.5 hPa West 16.1 km/h 20.9 km/h 89% 1.52 mm
23:14 11.2 °C 9.4 °C 1016.8 hPa NW 8 km/h 20.9 km/h 89% 1.02 mm
23:19 11.1 °C 9.4 °C 1016.8 hPa NNW 8 km/h 20.9 km/h 89% 1.02 mm
23:24 11.1 °C 9.3 °C 1016.8 hPa NNW 6.4 km/h 20.9 km/h 89% 0.51 mm
23:29 11 °C 9.3 °C 1017.2 hPa NNW 8 km/h 24.1 km/h 89% 0.25 mm
23:34 10.9 °C 9.2 °C 1017.5 hPa NNW 9.7 km/h 24.1 km/h 89% 0.25 mm
23:39 10.8 °C 9.1 °C 1017.5 hPa NNE 8 km/h 25.7 km/h 89% 0.25 mm
23:44 10.8 °C 9.1 °C 1017.5 hPa NNW 8 km/h 25.7 km/h 89% 0.25 mm
23:49 10.8 °C 9.1 °C 1017.8 hPa NNW 8 km/h 22.5 km/h 89% 0.25 mm
23:54 10.8 °C 9.1 °C 1018.2 hPa NNW 8 km/h 22.5 km/h 89% 0.25 mm
23:59 10.7 °C 8.9 °C 1018.2 hPa NW 4.8 km/h 20.9 km/h 89% 0.25 mm
Buffalo, New York, USA
Compliments of Weather Underground - 2.5 mb